Time;durP1;ratioP1;P1;durP2;ratioP2;P2;SDS_P1;SDS_P2;PMS_P1;PMS_P2;Temp;Humidity;BMP_temperature;BMP_pressure;BME280_temperature;BME280_humidity;BME280_pressure;Samples;Min_cycle;Max_cycle;Signal;HPM_P1;HPM_P2
2024/01/13 00:01:20;;;;;;;;;;;;;;;1.26;100.00;102835.41;5033174;28;19929;-77
2024/01/13 00:03:45;;;;;;;;;;;;;;;1.26;100.00;102830.25;5034709;28;20359;-77
2024/01/13 00:06:10;;;;;;;;;;;;;;;1.26;100.00;102825.06;5032801;28;19973;-78
2024/01/13 00:08:36;;;;;;;;;;;;;;;1.25;100.00;102823.31;5012544;28;19920;-78
2024/01/13 00:11:01;;;;;;;;;;;;;;;1.24;100.00;102816.38;5027779;28;19928;-78
2024/01/13 00:13:27;;;;;;;;;;;;;;;1.24;100.00;102821.53;5029795;28;19970;-78
2024/01/13 00:15:52;;;;;;;;;;;;;;;1.24;100.00;102811.19;5041043;28;19943;-78
2024/01/13 00:18:19;;;;;;;;;;;;;;;1.25;100.00;102817.25;5035759;28;20021;-78
2024/01/13 00:20:44;;;;;;;;;;;;;;;1.24;100.00;102821.53;5040156;28;19927;-78
2024/01/13 00:23:10;;;;;;;;;;;;;;;1.25;100.00;102814.66;5046059;28;19932;-74
2024/01/13 00:25:35;;;;;;;;;;;;;;;1.24;100.00;102815.47;5052707;28;20027;-73
2024/01/13 00:28:00;;;;;;;;;;;;;;;1.24;100.00;102811.19;5040729;28;19920;-73
2024/01/13 00:30:26;;;;;;;;;;;;;;;1.23;100.00;102801.66;5033432;28;19920;-73
2024/01/13 00:32:51;;;;;;;;;;;;;;;1.26;100.00;102804.41;5050080;28;19921;-73
2024/01/13 00:35:16;;;;;;;;;;;;;;;1.24;100.00;102803.44;5033723;28;19963;-73
2024/01/13 00:37:44;;;;;;;;;;;;;;;1.24;100.00;102795.69;5033784;28;20018;-73
2024/01/13 00:40:10;;;;;;;;;;;;;;;1.24;100.00;102795.69;5038524;28;19932;-73
2024/01/13 00:42:35;;;;;;;;;;;;;;;1.24;100.00;102789.66;5049258;28;19931;-73
2024/01/13 00:45:01;;;;;;;;;;;;;;;1.24;100.00;102779.31;5038169;28;20438;-73
2024/01/13 00:47:26;;;;;;;;;;;;;;;1.25;100.00;102786.25;5050187;28;19922;-78
2024/01/13 00:49:51;;;;;;;;;;;;;;;1.25;100.00;102787.16;5051701;28;19917;-78
2024/01/13 00:52:17;;;;;;;;;;;;;;;1.24;100.00;102785.38;5039936;28;19927;-78
2024/01/13 00:54:44;;;;;;;;;;;;;;;1.25;100.00;102781.09;5048825;28;20004;-78
2024/01/13 00:57:09;;;;;;;;;;;;;;;1.24;100.00;102782.78;5050850;28;19920;-78
2024/01/13 00:59:35;;;;;;;;;;;;;;;1.23;100.00;102770.66;5036790;28;19927;-78
2024/01/13 01:02:00;;;;;;;;;;;;;;;1.24;100.00;102766.41;5036230;28;19928;-78
2024/01/13 01:04:25;;;;;;;;;;;;;;;1.24;100.00;102764.72;5052663;28;19920;-78
2024/01/13 01:06:51;;;;;;;;;;;;;;;1.26;100.00;102773.41;5045749;28;19928;-78
2024/01/13 01:09:16;;;;;;;;;;;;;;;1.24;100.00;102766.41;5053452;28;19919;-78
2024/01/13 01:11:42;;;;;;;;;;;;;;;1.23;100.00;102760.34;5035547;28;19921;-78
2024/01/13 01:14:08;;;;;;;;;;;;;;;1.24;100.00;102756.09;5028870;28;19967;-78
2024/01/13 01:16:33;;;;;;;;;;;;;;;1.22;100.00;102750.78;5012182;28;20018;-78
2024/01/13 01:18:58;;;;;;;;;;;;;;;1.22;100.00;102750.78;4998323;28;19932;-78
2024/01/13 01:21:26;;;;;;;;;;;;;;;1.21;100.00;102751.63;5000684;28;19992;-78
2024/01/13 01:23:52;;;;;;;;;;;;;;;1.21;100.00;102754.22;5012344;28;20015;-78
2024/01/13 01:26:17;;;;;;;;;;;;;;;1.20;100.00;102748.13;5005283;28;19966;-78
2024/01/13 01:28:42;;;;;;;;;;;;;;;1.19;100.00;102742.88;5016257;28;19928;-78
2024/01/13 01:31:08;;;;;;;;;;;;;;;1.19;100.00;102740.28;5008337;28;19921;-78
2024/01/13 01:33:34;;;;;;;;;;;;;;;1.17;100.00;102739.34;5032504;28;19917;-78
2024/01/13 01:35:59;;;;;;;;;;;;;;;1.18;100.00;102735.97;4998977;28;20044;-78
2024/01/13 01:38:25;;;;;;;;;;;;;;;1.18;100.00;102739.41;5009359;28;20019;-78
2024/01/13 01:40:54;;;;;;;;;;;;;;;1.14;100.00;102729.72;5023189;28;20403;-78
2024/01/13 01:43:20;;;;;;;;;;;;;;;1.15;100.00;102733.16;5027038;28;19921;-78
2024/01/13 01:45:47;;;;;;;;;;;;;;;1.14;100.00;102734.88;5043208;28;20387;-78
2024/01/13 01:48:13;;;;;;;;;;;;;;;1.15;100.00;102733.16;5070110;28;19916;-78
2024/01/13 01:50:38;;;;;;;;;;;;;;;1.16;100.00;102751.34;5039360;28;19925;-78
2024/01/13 01:53:03;;;;;;;;;;;;;;;1.16;100.00;102737.53;5041633;28;19917;-78
2024/01/13 01:55:29;;;;;;;;;;;;;;;1.16;100.00;102741.00;5057245;28;19967;-78
2024/01/13 01:57:57;;;;;;;;;;;;;;;1.15;100.00;102731.50;5052664;28;20119;-78
2024/01/13 02:00:22;;;;;;;;;;;;;;;1.14;100.00;102732.28;5045308;28;19928;-78
2024/01/13 02:02:47;;;;;;;;;;;;;;;1.15;100.00;102733.16;5049013;28;19928;-78
2024/01/13 02:05:13;;;;;;;;;;;;;;;1.16;100.00;102729.78;5037173;28;19934;-78
2024/01/13 02:07:39;;;;;;;;;;;;;;;1.18;100.00;102717.88;5060216;28;19960;-79
2024/01/13 02:10:05;;;;;;;;;;;;;;;1.18;100.00;102704.97;5052333;28;20012;-79
2024/01/13 02:12:30;;;;;;;;;;;;;;;1.20;100.00;102713.69;5034530;28;20302;-79
2024/01/13 02:14:55;;;;;;;;;;;;;;;1.17;100.00;102710.91;5057060;28;20434;-74
2024/01/13 02:17:22;;;;;;;;;;;;;;;1.17;100.00;102719.56;5056066;28;19951;-74
2024/01/13 02:19:47;;;;;;;;;;;;;;;1.14;100.00;102714.22;5036350;28;19921;-74
2024/01/13 02:22:17;;;;;;;;;;;;;;;1.14;100.00;102715.91;5032921;28;20067;-73
2024/01/13 02:24:44;;;;;;;;;;;;;;;1.12;100.00;102705.50;5039647;28;19924;-73
2024/01/13 02:27:09;;;;;;;;;;;;;;;1.12;100.00;102702.00;5035789;28;19928;-74
2024/01/13 02:29:34;;;;;;;;;;;;;;;1.15;100.00;102705.69;5064290;28;20295;-73
2024/01/13 02:32:01;;;;;;;;;;;;;;;1.14;100.00;102690.09;5055284;28;20276;-74
2024/01/13 02:34:26;;;;;;;;;;;;;;;1.14;100.00;102692.69;5051515;28;19917;-74
2024/01/13 02:36:51;;;;;;;;;;;;;;;1.14;100.00;102687.50;5051278;28;19923;-74
2024/01/13 02:39:17;;;;;;;;;;;;;;;1.13;100.00;102688.31;5038060;28;19932;-73
2024/01/13 02:41:45;;;;;;;;;;;;;;;1.13;100.00;102677.97;5053320;28;19924;-74
2024/01/13 02:44:10;;;;;;;;;;;;;;;1.12;100.00;102676.19;5055676;28;19920;-73
2024/01/13 02:46:35;;;;;;;;;;;;;;;1.13;100.00;102671.09;5038275;28;19921;-73
2024/01/13 02:49:01;;;;;;;;;;;;;;;1.12;100.00;102660.69;5038599;28;20020;-74
2024/01/13 02:51:27;;;;;;;;;;;;;;;1.13;100.00;102660.78;5054950;28;19944;-74
2024/01/13 02:53:53;;;;;;;;;;;;;;;1.14;100.00;102653.94;5055100;28;19966;-74
2024/01/13 02:56:19;;;;;;;;;;;;;;;1.13;100.00;102652.16;5041776;28;19928;-74
2024/01/13 02:58:44;;;;;;;;;;;;;;;1.13;100.00;102647.88;5033432;28;19916;-73
2024/01/13 03:01:09;;;;;;;;;;;;;;;1.13;100.00;102636.66;5044016;28;20315;-74
2024/01/13 03:03:36;;;;;;;;;;;;;;;1.13;100.00;102636.66;5041746;28;19924;-74
2024/01/13 03:06:03;;;;;;;;;;;;;;;1.13;100.00;102631.50;5061948;28;19916;-74
2024/01/13 03:08:28;;;;;;;;;;;;;;;1.14;100.00;102638.44;5043652;28;20236;-74
2024/01/13 03:10:53;;;;;;;;;;;;;;;1.13;100.00;102622.03;5038708;28;20321;-79
2024/01/13 03:13:19;;;;;;;;;;;;;;;1.12;100.00;102625.47;5066070;28;19927;-78
2024/01/13 03:15:44;;;;;;;;;;;;;;;1.12;100.00;102621.97;5054845;28;20463;-78
2024/01/13 03:18:10;;;;;;;;;;;;;;;1.15;100.00;102614.38;5050348;28;20482;-78
2024/01/13 03:20:35;;;;;;;;;;;;;;;1.14;100.00;102612.63;5038562;28;20304;-79
2024/01/13 03:23:00;;;;;;;;;;;;;;;1.13;100.00;102614.31;5038370;28;19933;-79
2024/01/13 03:25:28;;;;;;;;;;;;;;;1.13;100.00;102611.72;5041534;28;19921;-78
2024/01/13 03:27:53;;;;;;;;;;;;;;;1.13;100.00;102600.50;5044286;28;19924;-79
2024/01/13 03:30:19;;;;;;;;;;;;;;;1.13;100.00;102596.22;5054359;28;20264;-78
2024/01/13 03:32:44;;;;;;;;;;;;;;;1.15;100.00;102593.72;5055171;28;19932;-79
2024/01/13 03:35:10;;;;;;;;;;;;;;;1.16;100.00;102592.94;5037335;28;19920;-79
2024/01/13 03:37:35;;;;;;;;;;;;;;;1.15;100.00;102588.56;5053919;28;20265;-78
2024/01/13 03:40:00;;;;;;;;;;;;;;;1.17;100.00;102581.81;5061276;28;20348;-79
2024/01/13 03:42:26;;;;;;;;;;;;;;;1.16;100.00;102575.72;5033273;28;19966;-78
2024/01/13 03:44:51;;;;;;;;;;;;;;;1.19;100.00;102575.00;5049776;28;19927;-79
2024/01/13 03:47:17;;;;;;;;;;;;;;;1.20;100.00;102569.06;5035671;28;19920;-74
2024/01/13 03:49:42;;;;;;;;;;;;;;;1.26;100.00;102571.09;5034264;28;19927;-74
2024/01/13 03:52:07;;;;;;;;;;;;;;;1.25;100.00;102569.28;5036835;28;20376;-74
2024/01/13 03:54:32;;;;;;;;;;;;;;;1.26;100.00;102563.34;5059232;28;19920;-74
2024/01/13 03:56:58;;;;;;;;;;;;;;;1.29;100.00;102554.03;5044219;28;20006;-74
2024/01/13 03:59:23;;;;;;;;;;;;;;;1.30;100.00;102557.53;5035656;28;19920;-74
2024/01/13 04:01:48;;;;;;;;;;;;;;;1.31;100.00;102555.03;5041215;28;19928;-74
2024/01/13 04:04:14;;;;;;;;;;;;;;;1.33;100.00;102556.00;5035960;28;19928;-74
2024/01/13 04:06:40;;;;;;;;;;;;;;;1.34;100.00;102552.59;5050821;28;19927;-74
2024/01/13 04:09:05;;;;;;;;;;;;;;;1.37;100.00;102549.31;5037718;28;20356;-74
2024/01/13 04:11:30;;;;;;;;;;;;;;;1.36;100.00;102540.66;5048864;28;20018;-73
2024/01/13 04:13:56;;;;;;;;;;;;;;;1.38;100.00;102543.34;5054092;28;19924;-73
2024/01/13 04:16:21;;;;;;;;;;;;;;;1.40;100.00;102548.59;5033528;28;20356;-73
2024/01/13 04:18:46;;;;;;;;;;;;;;;1.41;100.00;102535.75;5035399;28;19976;-73
2024/01/13 04:21:12;;;;;;;;;;;;;;;1.41;100.00;102540.00;5035760;28;19990;-73
2024/01/13 04:23:37;;;;;;;;;;;;;;;1.41;100.00;102535.75;5042751;28;20372;-73
2024/01/13 04:26:02;;;;;;;;;;;;;;;1.43;100.00;102538.41;5036243;28;19920;-73
2024/01/13 04:28:28;;;;;;;;;;;;;;;1.44;100.00;102529.84;5051554;28;19971;-73
2024/01/13 04:30:53;;;;;;;;;;;;;;;1.44;100.00;102529.84;5062512;28;20423;-73
2024/01/13 04:33:18;;;;;;;;;;;;;;;1.44;100.00;102525.56;5032388;28;19921;-73
2024/01/13 04:35:44;;;;;;;;;;;;;;;1.45;100.00;102535.13;5036537;28;19930;-73
2024/01/13 04:38:09;;;;;;;;;;;;;;;1.45;100.00;102529.03;5050738;28;19924;-73
2024/01/13 04:40:36;;;;;;;;;;;;;;;1.45;100.00;102526.44;5052981;28;19920;-73
2024/01/13 04:43:02;;;;;;;;;;;;;;;1.46;100.00;102530.81;5032727;28;19932;-73
2024/01/13 04:45:28;;;;;;;;;;;;;;;1.48;100.00;102534.34;5036739;28;19920;-73
2024/01/13 04:47:53;;;;;;;;;;;;;;;1.45;100.00;102527.38;5036560;28;19943;-73
2024/01/13 04:50:18;;;;;;;;;;;;;;;1.44;100.00;102525.56;5037081;28;20019;-73
2024/01/13 04:52:45;;;;;;;;;;;;;;;1.48;100.00;102526.59;5045971;28;19916;-73
2024/01/13 04:55:10;;;;;;;;;;;;;;;1.45;100.00;102536.78;5048318;28;19928;-73
2024/01/13 04:57:36;;;;;;;;;;;;;;;1.46;100.00;102528.25;5050238;28;19917;-73
2024/01/13 05:00:03;;;;;;;;;;;;;;;1.45;100.00;102526.44;5053291;28;19968;-73
2024/01/13 05:02:29;;;;;;;;;;;;;;;1.49;100.00;102529.28;5038484;28;19928;-73
2024/01/13 05:04:55;;;;;;;;;;;;;;;1.46;100.00;102517.91;5038180;28;19925;-73
2024/01/13 05:07:22;;;;;;;;;;;;;;;1.48;100.00;102524.03;5056042;28;20438;-73
2024/01/13 05:09:50;;;;;;;;;;;;;;;1.48;100.00;102524.03;5062216;28;19927;-73
2024/01/13 05:12:15;;;;;;;;;;;;;;;1.47;100.00;102527.44;5040104;28;19928;-74
2024/01/13 05:14:41;;;;;;;;;;;;;;;1.48;100.00;102521.44;5040728;28;19921;-73
2024/01/13 05:17:07;;;;;;;;;;;;;;;1.47;100.00;102530.91;5039763;28;19924;-73
2024/01/13 05:19:32;;;;;;;;;;;;;;;1.46;100.00;102523.06;5040300;28;20434;-73
2024/01/13 05:21:58;;;;;;;;;;;;;;;1.47;100.00;102524.84;5056596;28;20751;-73
2024/01/13 05:24:23;;;;;;;;;;;;;;;1.47;100.00;102525.72;5070644;28;19924;-73
2024/01/13 05:26:48;;;;;;;;;;;;;;;1.49;100.00;102529.28;5050507;28;19939;-74
2024/01/13 05:29:14;;;;;;;;;;;;;;;1.47;100.00;102525.72;5040577;28;19969;-73
2024/01/13 05:31:41;;;;;;;;;;;;;;;1.47;100.00;102517.97;5071942;28;20387;-73
2024/01/13 05:34:06;;;;;;;;;;;;;;;1.47;100.00;102519.69;5057242;28;19923;-74
2024/01/13 05:36:32;;;;;;;;;;;;;;;1.49;100.00;102518.06;5040099;28;19921;-79
2024/01/13 05:38:57;;;;;;;;;;;;;;;1.48;100.00;102508.53;5040645;28;19920;-79
2024/01/13 05:41:23;;;;;;;;;;;;;;;1.50;100.00;102514.69;5039696;28;19920;-78
2024/01/13 05:43:48;;;;;;;;;;;;;;;1.50;100.00;102514.69;5056671;28;19963;-79
2024/01/13 05:46:14;;;;;;;;;;;;;;;1.52;100.00;102513.03;5032085;28;20022;-79
2024/01/13 05:48:39;;;;;;;;;;;;;;;1.51;100.00;102511.28;5040419;28;19983;-78
2024/01/13 05:51:04;;;;;;;;;;;;;;;1.51;100.00;102500.97;5036888;28;20289;-79
2024/01/13 05:53:30;;;;;;;;;;;;;;;1.50;100.00;102502.63;5053468;28;20376;-79
2024/01/13 05:55:55;;;;;;;;;;;;;;;1.51;100.00;102500.97;5037229;28;19947;-79
2024/01/13 05:58:21;;;;;;;;;;;;;;;1.53;100.00;102504.50;5040822;28;20379;-79
2024/01/13 06:00:46;;;;;;;;;;;;;;;1.54;100.00;102516.63;5053748;28;19936;-79
2024/01/13 06:03:12;;;;;;;;;;;;;;;1.55;100.00;102520.94;5039275;28;19943;-79
2024/01/13 06:05:38;;;;;;;;;;;;;;;1.55;100.00;102519.28;5041172;28;19974;-79
2024/01/13 06:08:04;;;;;;;;;;;;;;;1.56;100.00;102530.50;5039028;28;19928;-79
2024/01/13 06:10:30;;;;;;;;;;;;;;;1.56;100.00;102525.31;5038282;28;20391;-79
2024/01/13 06:12:56;;;;;;;;;;;;;;;1.56;100.00;102512.41;5035782;28;19976;-80
2024/01/13 06:15:23;;;;;;;;;;;;;;;1.54;100.00;102507.16;5034535;28;19921;-79
2024/01/13 06:17:48;;;;;;;;;;;;;;;1.55;100.00;102498.59;5036132;28;19921;-79
2024/01/13 06:20:14;;;;;;;;;;;;;;;1.54;100.00;102490.78;5018210;28;20391;-79
2024/01/13 06:22:39;;;;;;;;;;;;;;;1.53;100.00;102481.25;5035275;28;19967;-79
2024/01/13 06:25:05;;;;;;;;;;;;;;;1.52;100.00;102476.88;5032764;28;20308;-79
2024/01/13 06:27:30;;;;;;;;;;;;;;;1.51;100.00;102463.09;5044041;28;19929;-79
2024/01/13 06:29:55;;;;;;;;;;;;;;;1.50;100.00;102458.72;5035267;28;19983;-79
2024/01/13 06:32:23;;;;;;;;;;;;;;;1.50;100.00;102447.50;5031466;28;20439;-80
2024/01/13 06:34:48;;;;;;;;;;;;;;;1.49;100.00;102445.72;5038533;28;20297;-78
2024/01/13 06:37:14;;;;;;;;;;;;;;;1.49;100.00;102453.47;5046000;28;19917;-78
2024/01/13 06:39:39;;;;;;;;;;;;;;;1.47;100.00;102458.56;5034909;28;19924;-79
2024/01/13 06:42:07;;;;;;;;;;;;;;;1.47;100.00;102455.09;5013286;28;19952;-79
2024/01/13 06:44:33;;;;;;;;;;;;;;;1.48;100.00;102462.03;5016394;28;19972;-79
2024/01/13 06:46:58;;;;;;;;;;;;;;;1.46;100.00;102459.34;5039543;28;19964;-79
2024/01/13 06:49:23;;;;;;;;;;;;;;;1.48;100.00;102454.28;5031544;28;19945;-79
2024/01/13 06:51:49;;;;;;;;;;;;;;;1.48;100.00;102456.84;5047537;28;19917;-78
2024/01/13 06:54:14;;;;;;;;;;;;;;;1.49;100.00;102446.59;5018159;28;20003;-79
2024/01/13 06:56:41;;;;;;;;;;;;;;;1.47;100.00;102424.97;5032392;28;20292;-78
2024/01/13 06:59:07;;;;;;;;;;;;;;;1.47;100.00;102427.56;5019030;28;19920;-79
2024/01/13 07:01:32;;;;;;;;;;;;;;;1.48;100.00;102431.03;5041427;28;19999;-78
2024/01/13 07:03:58;;;;;;;;;;;;;;;1.46;100.00;102422.31;5033370;28;19925;-79
2024/01/13 07:06:23;;;;;;;;;;;;;;;1.46;100.00;102414.56;5035407;28;20018;-79
2024/01/13 07:08:48;;;;;;;;;;;;;;;1.45;100.00;102398.19;5018806;28;20015;-80
2024/01/13 07:11:14;;;;;;;;;;;;;;;1.45;100.00;102386.94;5022503;28;19920;-79
2024/01/13 07:13:43;;;;;;;;;;;;;;;1.45;100.00;102386.94;5039063;28;19930;-77
2024/01/13 07:16:09;;;;;;;;;;;;;;;1.45;100.00;102392.13;5055403;28;19978;-78
2024/01/13 07:18:34;;;;;;;;;;;;;;;1.44;100.00;102380.00;5071937;28;20003;-79
2024/01/13 07:20:59;;;;;;;;;;;;;;;1.44;100.00;102364.50;5051522;28;20003;-73
2024/01/13 07:23:25;;;;;;;;;;;;;;;1.45;100.00;102374.03;5053952;28;19935;-73
2024/01/13 07:25:50;;;;;;;;;;;;;;;1.47;100.00;102395.69;5068415;28;19920;-73
2024/01/13 07:28:15;;;;;;;;;;;;;;;1.45;100.00;102393.03;5050629;28;19923;-73
2024/01/13 07:30:41;;;;;;;;;;;;;;;1.46;100.00;102379.28;5051862;28;19926;-74
2024/01/13 07:33:07;;;;;;;;;;;;;;;1.46;100.00;102378.41;5054938;28;20007;-73
2024/01/13 07:35:34;;;;;;;;;;;;;;;1.46;100.00;102380.97;5038686;28;19920;-73
2024/01/13 07:38:00;;;;;;;;;;;;;;;1.48;100.00;102387.09;5053118;28;20011;-74
2024/01/13 07:40:26;;;;;;;;;;;;;;;1.50;100.00;102391.53;5033034;28;20378;-74
2024/01/13 07:42:52;;;;;;;;;;;;;;;1.51;100.00;102380.41;5037704;28;19936;-73
2024/01/13 07:45:17;;;;;;;;;;;;;;;1.51;100.00;102387.28;5055021;28;19962;-73
2024/01/13 07:47:43;;;;;;;;;;;;;;;1.50;100.00;102375.16;5048546;28;19983;-73
2024/01/13 07:50:08;;;;;;;;;;;;;;;1.51;100.00;102382.13;5039242;28;19925;-74
2024/01/13 07:52:34;;;;;;;;;;;;;;;1.50;100.00;102360.53;5036827;28;20422;-74
2024/01/13 07:54:59;;;;;;;;;;;;;;;1.50;100.00;102360.53;5051008;28;19924;-74
2024/01/13 07:57:26;;;;;;;;;;;;;;;1.52;100.00;102358.03;5054234;28;19916;-73
2024/01/13 07:59:51;;;;;;;;;;;;;;;1.51;100.00;102345.94;5054545;28;19955;-73
2024/01/13 08:02:17;;;;;;;;;;;;;;;1.49;100.00;102365.63;5036743;28;19956;-73
2024/01/13 08:04:43;;;;;;;;;;;;;;;1.50;100.00;102357.06;5051426;28;20376;-74
2024/01/13 08:07:11;;;;;;;;;;;;;;;1.49;100.00;102329.47;5053990;28;19946;-73
2024/01/13 08:09:37;;;;;;;;;;;;;;;1.50;100.00;102326.06;5100908;23;19932;-74
2024/01/13 08:12:02;;;;;;;;;;;;;;;1.48;100.00;102315.66;5014192;28;19921;-77
2024/01/13 08:14:28;;;;;;;;;;;;;;;1.49;100.00;102329.47;5024103;28;19927;-79
2024/01/13 08:16:53;;;;;;;;;;;;;;;1.50;100.00;102333.81;5000076;28;19925;-79
2024/01/13 08:19:19;;;;;;;;;;;;;;;1.53;100.00;102334.84;5011220;28;19924;-79
2024/01/13 08:21:44;;;;;;;;;;;;;;;1.50;100.00;102311.44;4992965;28;20373;-79
2024/01/13 08:24:09;;;;;;;;;;;;;;;1.52;100.00;102308.94;4966271;28;19955;-79
2024/01/13 08:26:35;;;;;;;;;;;;;;;1.52;100.00;102306.34;4989789;28;19925;-79
2024/01/13 08:29:00;;;;;;;;;;;;;;;1.54;100.00;102322.84;4995345;28;19961;-78
2024/01/13 08:31:26;;;;;;;;;;;;;;;1.54;100.00;102318.53;4993903;28;19917;-78
2024/01/13 08:33:51;;;;;;;;;;;;;;;1.55;100.00;102317.75;5012335;28;20369;-78
2024/01/13 08:36:17;;;;;;;;;;;;;;;1.55;100.00;102314.25;4973909;28;19968;-79
2024/01/13 08:38:44;;;;;;;;;;;;;;;1.55;100.00;102311.66;4974968;28;19929;-80
2024/01/13 08:41:10;;;;;;;;;;;;;;;1.56;100.00;102316.03;4977629;28;20369;-78
2024/01/13 08:43:36;;;;;;;;;;;;;;;1.57;100.00;102322.97;4994295;28;19930;-78
2024/01/13 08:46:01;;;;;;;;;;;;;;;1.60;100.00;102317.09;4994678;28;19973;-79
2024/01/13 08:48:26;;;;;;;;;;;;;;;1.59;100.00;102311.00;5010890;28;19929;-79
2024/01/13 08:50:52;;;;;;;;;;;;;;;1.60;100.00;102323.13;4995753;28;19925;-79
2024/01/13 08:53:17;;;;;;;;;;;;;;;1.60;100.00;102325.72;4993751;28;20036;-79
2024/01/13 08:55:42;;;;;;;;;;;;;;;1.61;100.00;102314.56;4993757;28;20308;-79
2024/01/13 08:58:08;;;;;;;;;;;;;;;1.61;100.00;102327.50;4991932;28;20429;-79
2024/01/13 09:00:33;;;;;;;;;;;;;;;1.63;100.00;102320.69;4976352;28;20098;-78
2024/01/13 09:02:58;;;;;;;;;;;;;;;1.65;100.00;102319.09;4997164;28;20297;-78
2024/01/13 09:05:24;;;;;;;;;;;;;;;1.65;100.00;102313.91;4977566;28;20000;-79
2024/01/13 09:07:49;;;;;;;;;;;;;;;1.67;100.00;102327.78;4980393;28;20016;-79
2024/01/13 09:10:15;;;;;;;;;;;;;;;1.69;100.00;102325.28;5005040;28;19932;-79
2024/01/13 09:12:40;;;;;;;;;;;;;;;1.70;100.00;102325.34;4996287;28;19925;-77
2024/01/13 09:15:06;;;;;;;;;;;;;;;1.70;100.00;102317.59;4996863;28;20333;-79
2024/01/13 09:17:31;;;;;;;;;;;;;;;1.72;100.00;102321.16;4997847;28;20472;-80
2024/01/13 09:19:57;;;;;;;;;;;;;;;1.72;100.00;102323.72;5014092;28;19940;-79
2024/01/13 09:22:22;;;;;;;;;;;;;;;1.73;100.00;102322.91;5028175;28;19924;-77
2024/01/13 09:24:47;;;;;;;;;;;;;;;1.74;100.00;102316.06;5005620;28;19980;-80
2024/01/13 09:27:15;;;;;;;;;;;;;;;1.73;100.00;102315.16;5029113;28;19924;-79
2024/01/13 09:29:40;;;;;;;;;;;;;;;1.76;100.00;102318.72;5014474;28;19928;-79
2024/01/13 09:32:06;;;;;;;;;;;;;;;1.76;100.00;102317.00;4996230;28;19917;-78
2024/01/13 09:34:31;;;;;;;;;;;;;;;1.78;100.00;102317.06;4996399;28;20480;-79
2024/01/13 09:36:56;;;;;;;;;;;;;;;1.80;100.00;102318.03;4992575;28;20293;-79
2024/01/13 09:39:22;;;;;;;;;;;;;;;1.79;100.00;102316.25;5004881;28;19940;-79
2024/01/13 09:41:48;;;;;;;;;;;;;;;1.80;100.00;102313.75;5002815;28;20389;-79
2024/01/13 09:44:23;;;;;;;;;;;;;;;1.81;100.00;102306.88;5019039;28;19968;-79
2024/01/13 09:46:51;;;;;;;;;;;;;;;1.83;100.00;102302.69;5026863;28;19920;-79
2024/01/13 09:49:17;;;;;;;;;;;;;;;1.83;100.00;102305.25;5011987;28;19924;-79
2024/01/13 09:51:44;;;;;;;;;;;;;;;1.87;100.00;102294.25;5016692;28;19921;-79
2024/01/13 09:54:19;;;;;;;;;;;;;;;1.84;100.00;102284.66;5033315;28;19992;-80
2024/01/13 09:56:45;;;;;;;;;;;;;;;1.85;100.00;102282.94;5016718;28;20439;-78
2024/01/13 09:59:12;;;;;;;;;;;;;;;1.88;100.00;102283.09;5009027;28;20390;-79
2024/01/13 10:01:38;;;;;;;;;;;;;;;1.88;100.00;102275.31;5033059;28;20368;-79
2024/01/13 10:04:04;;;;;;;;;;;;;;;1.90;100.00;102276.31;5013781;28;20316;-76
2024/01/13 10:06:33;;;;;;;;;;;;;;;1.88;100.00;102280.50;5013404;28;19929;-79
2024/01/13 10:08:59;;;;;;;;;;;;;;;1.89;100.00;102282.28;5033399;28;20289;-78
2024/01/13 10:11:24;;;;;;;;;;;;;;;1.88;100.00;102290.84;5015601;28;20007;-80
2024/01/13 10:14:10;;;;;;;;;;;;;;;1.90;100.00;102289.22;5006013;28;19925;-79
2024/01/13 10:16:35;;;;;;;;;;;;;;;1.90;100.00;102277.19;5012932;28;19921;-79
2024/01/13 10:19:07;;;;;;;;;;;;;;;1.91;100.00;102285.81;5010527;28;20396;-79
2024/01/13 10:21:33;;;;;;;;;;;;;;;1.91;100.00;102280.63;5024645;28;19924;-78
2024/01/13 10:24:00;;;;;;;;;;;;;;;1.93;100.00;102268.69;5003854;28;19913;-79
2024/01/13 10:26:26;;;;;;;;;;;;;;;1.94;100.00;102274.72;5001382;28;20297;-78
2024/01/13 10:28:52;;;;;;;;;;;;;;;1.95;100.00;102271.34;4995081;28;19918;-79
2024/01/13 10:31:18;;;;;;;;;;;;;;;1.95;100.00;102256.69;5008181;28;19929;-78
2024/01/13 10:33:47;;;;;;;;;;;;;;;1.97;100.00;102265.44;5032639;28;19929;-78
2024/01/13 10:36:13;;;;;;;;;;;;;;;1.97;100.00;102261.94;4999878;28;19987;-78
2024/01/13 10:38:42;;;;;;;;;;;;;;;1.99;100.00;102261.19;5014563;28;19967;-78
2024/01/13 10:41:21;;;;;;;;;;;;;;;1.99;100.00;102257.75;5012383;28;20431;-73
2024/01/13 10:43:51;;;;;;;;;;;;;;;1.99;100.00;102255.16;5029596;28;19954;-79
2024/01/13 10:46:21;;;;;;;;;;;;;;;2.01;100.00;102258.69;5025106;28;20357;-79
2024/01/13 10:48:48;;;;;;;;;;;;;;;2.01;100.00;102253.50;5030722;28;19964;-79
2024/01/13 10:51:19;;;;;;;;;;;;;;;2.01;100.00;102251.84;5031306;28;20289;-79
2024/01/13 10:53:46;;;;;;;;;;;;;;;2.02;100.00;102242.38;5032655;28;20107;-79
2024/01/13 10:56:12;;;;;;;;;;;;;;;2.02;100.00;102237.19;5031442;28;19928;-79
2024/01/13 10:58:39;;;;;;;;;;;;;;;2.02;100.00;102239.78;5032756;28;20400;-79
2024/01/13 11:01:05;;;;;;;;;;;;;;;2.04;100.00;102236.47;5031545;28;19925;-79
2024/01/13 11:03:33;;;;;;;;;;;;;;;2.03;100.00;102224.34;4997301;28;19933;-79
2024/01/13 11:06:00;;;;;;;;;;;;;;;2.02;100.00;102222.56;5025017;28;20016;-79
2024/01/13 11:08:28;;;;;;;;;;;;;;;2.01;100.00;102220.81;5015023;28;20249;-79
2024/01/13 11:10:54;;;;;;;;;;;;;;;2.02;100.00;102212.22;5031442;28;19929;-78
2024/01/13 11:13:35;;;;;;;;;;;;;;;2.03;100.00;102208.81;4992509;28;19928;-78
2024/01/13 11:16:09;;;;;;;;;;;;;;;2.06;100.00;102214.13;5015288;28;20020;-78
2024/01/13 11:18:40;;;;;;;;;;;;;;;2.07;100.00;102208.16;5018532;28;19923;-79
2024/01/13 11:21:06;;;;;;;;;;;;;;;2.07;100.00;102208.16;5031677;28;20047;-79
2024/01/13 11:23:58;;;;;;;;;;;;;;;2.08;100.00;102207.34;5009363;28;19964;-78
2024/01/13 11:26:38;;;;;;;;;;;;;;;2.09;100.00;102203.03;5003175;28;19964;-79
2024/01/13 11:29:16;;;;;;;;;;;;;;;2.10;100.00;102203.91;5015939;28;19913;-79
2024/01/13 11:31:45;;;;;;;;;;;;;;;2.10;100.00;102203.91;5015422;28;19928;-79
2024/01/13 11:34:12;;;;;;;;;;;;;;;2.09;100.00;102210.81;5015587;28;20004;-78
2024/01/13 11:36:47;;;;;;;;;;;;;;;2.10;100.00;102203.91;5014485;28;19913;-79
2024/01/13 11:39:13;;;;;;;;;;;;;;;2.07;100.00;102202.97;5014882;28;19971;-79
2024/01/13 11:41:39;;;;;;;;;;;;;;;2.11;100.00;102210.88;5014570;28;19949;-79
2024/01/13 11:44:05;;;;;;;;;;;;;;;2.08;100.00;102206.44;5014737;28;19914;-78
2024/01/13 11:46:38;;;;;;;;;;;;;;;2.06;100.00;102196.03;4999420;28;19929;-77
2024/01/13 11:49:06;;;;;;;;;;;;;;;2.09;100.00;102187.53;5014878;28;19913;-75
2024/01/13 11:51:50;;;;;;;;;;;;;;;2.10;100.00;102191.91;5009370;28;19924;-76
2024/01/13 11:54:17;;;;;;;;;;;;;;;2.10;100.00;102188.41;5015083;28;19921;-78
2024/01/13 11:56:43;;;;;;;;;;;;;;;2.14;100.00;102195.47;5020818;28;19955;-79
2024/01/13 11:59:10;;;;;;;;;;;;;;;2.14;100.00;102183.47;5027791;28;19998;-77
2024/01/13 12:01:36;;;;;;;;;;;;;;;2.17;100.00;102181.00;5021428;28;19917;-79
2024/01/13 12:04:01;;;;;;;;;;;;;;;2.18;100.00;102176.69;5032040;28;19918;-78
2024/01/13 12:06:27;;;;;;;;;;;;;;;2.20;100.00;102172.50;4994944;28;20354;-77
2024/01/13 12:08:53;;;;;;;;;;;;;;;2.20;100.00;102168.19;5010466;28;19921;-73
2024/01/13 12:11:18;;;;;;;;;;;;;;;2.21;100.00;102162.22;5024659;28;20559;-76
2024/01/13 12:13:45;;;;;;;;;;;;;;;2.21;100.00;102153.56;5005183;28;19929;-77
2024/01/13 12:16:10;;;;;;;;;;;;;;;2.25;100.00;102150.28;5001535;28;19925;-78
2024/01/13 12:18:36;;;;;;;;;;;;;;;2.26;100.00;102146.91;5015537;28;19921;-73
2024/01/13 12:21:02;;;;;;;;;;;;;;;2.21;100.00;102135.44;5013349;28;19968;-74
2024/01/13 12:23:27;;;;;;;;;;;;;;;2.24;100.00;102125.22;5029959;28;20405;-73
2024/01/13 12:25:53;;;;;;;;;;;;;;;2.22;100.00;102124.31;5023719;28;19924;-74
2024/01/13 12:28:21;;;;;;;;;;;;;;;2.20;100.00;102118.19;5029863;28;19917;-80
2024/01/13 12:30:50;;;;;;;;;;;;;;;2.24;100.00;102120.06;5007701;28;19921;-73